Time;durP1;ratioP1;P1;durP2;ratioP2;P2;SDS_P1;SDS_P2;PMS_P1;PMS_P2;Temp;Humidity;BMP_temperature;BMP_pressure;BME280_temperature;BME280_humidity;BME280_pressure;Samples;Min_cycle;Max_cycle;Signal;HPM_P1;HPM_P2
2024/03/11 00:01:34;;;;;;;74.38;26.92;;;5.40;99.90;;;;;;5023662;28;20022;-93
2024/03/11 00:04:01;;;;;;;85.93;30.90;;;5.40;99.90;;;;;;5020903;28;20025;-94
2024/03/11 00:06:29;;;;;;;82.15;28.85;;;5.40;99.90;;;;;;5017441;28;20061;-92
2024/03/11 00:08:56;;;;;;;88.15;30.80;;;5.40;99.90;;;;;;5017091;28;20029;-91
2024/03/11 00:11:24;;;;;;;85.38;30.67;;;5.40;99.90;;;;;;4999069;28;20443;-93
2024/03/11 00:13:50;;;;;;;86.25;29.20;;;5.40;99.90;;;;;;5016531;28;20104;-93
2024/03/11 00:16:16;;;;;;;91.70;31.38;;;5.40;99.90;;;;;;5017156;28;20033;-92
2024/03/11 00:18:42;;;;;;;86.38;30.42;;;5.40;99.90;;;;;;5016141;28;20065;-95
2024/03/11 00:21:08;;;;;;;94.63;28.58;;;5.40;99.90;;;;;;4998244;28;20042;-93
2024/03/11 00:23:33;;;;;;;91.45;30.92;;;5.40;99.90;;;;;;5015602;28;20018;-93
2024/03/11 00:25:59;;;;;;;87.63;28.77;;;5.40;99.90;;;;;;4999095;28;20026;-90
2024/03/11 00:28:25;;;;;;;79.88;28.33;;;5.40;99.90;;;;;;5016173;28;20034;-95
2024/03/11 00:30:51;;;;;;;81.50;28.42;;;5.40;99.90;;;;;;5016369;28;20018;-94
2024/03/11 00:33:17;;;;;;;82.68;29.20;;;5.40;99.90;;;;;;4999558;28;20021;-94
2024/03/11 00:35:45;;;;;;;82.28;29.05;;;5.40;99.90;;;;;;4998524;28;20028;-95
2024/03/11 00:38:11;;;;;;;73.75;28.42;;;5.40;99.90;;;;;;4998715;28;20022;-93
2024/03/11 00:40:37;;;;;;;77.32;29.27;;;5.40;99.90;;;;;;4998459;28;20028;-92
2024/03/11 00:43:04;;;;;;;85.25;27.55;;;5.40;99.90;;;;;;4997647;28;20072;-93
2024/03/11 00:45:30;;;;;;;86.20;30.52;;;5.30;99.90;;;;;;4997325;28;20048;-92
2024/03/11 00:47:56;;;;;;;97.80;31.13;;;5.40;99.90;;;;;;4998274;28;20061;-94
2024/03/11 00:50:21;;;;;;;74.78;29.20;;;5.40;99.90;;;;;;4998474;28;20030;-93
2024/03/11 00:52:48;;;;;;;86.47;29.52;;;5.30;99.90;;;;;;5016996;28;20611;-93
2024/03/11 00:55:14;;;;;;;77.45;26.63;;;5.40;99.90;;;;;;4997995;28;20484;-93
2024/03/11 00:57:41;;;;;;;74.05;27.58;;;5.40;99.90;;;;;;5014296;28;20141;-94
2024/03/11 01:00:11;;;;;;;69.75;26.52;;;5.40;99.90;;;;;;5014827;28;20106;-94
2024/03/11 01:02:38;;;;;;;79.90;27.80;;;5.50;99.90;;;;;;5014211;28;20022;-94
2024/03/11 01:05:05;;;;;;;71.15;26.75;;;5.50;99.90;;;;;;5014101;28;20021;-94
2024/03/11 01:07:35;;;;;;;71.15;24.80;;;5.50;99.90;;;;;;4996705;28;20080;-93
2024/03/11 01:10:02;;;;;;;82.15;28.00;;;5.60;99.90;;;;;;4996154;28;20045;-93
2024/03/11 01:12:27;;;;;;;62.33;25.63;;;5.60;99.90;;;;;;4995994;28;20121;-94
2024/03/11 01:14:54;;;;;;;60.65;25.33;;;5.50;99.90;;;;;;4996604;28;20129;-93
2024/03/11 01:17:20;;;;;;;62.08;23.63;;;5.50;99.90;;;;;;4996253;28;20053;-93
2024/03/11 01:19:47;;;;;;;64.95;23.95;;;5.50;99.90;;;;;;5014268;28;20108;-92
2024/03/11 01:22:13;;;;;;;68.18;25.55;;;5.50;99.90;;;;;;4997221;28;20033;-94
2024/03/11 01:24:39;;;;;;;60.80;25.58;;;5.50;99.90;;;;;;4996625;28;20038;-92
2024/03/11 01:27:10;;;;;;;68.90;26.75;;;5.40;99.90;;;;;;5013484;28;20084;-93
2024/03/11 01:29:39;;;;;;;68.93;24.33;;;5.50;99.90;;;;;;5013331;28;20022;-93
2024/03/11 01:32:11;;;;;;;63.42;24.30;;;5.40;99.90;;;;;;4996001;28;20022;-94
2024/03/11 01:34:38;;;;;;;59.45;24.42;;;5.40;99.90;;;;;;5013266;28;20017;-91
2024/03/11 01:37:06;;;;;;;47.33;18.13;;;5.40;99.90;;;;;;5013896;28;20049;-94
2024/03/11 01:39:44;;;;;;;58.30;22.77;;;5.40;99.90;;;;;;4996557;28;20128;-93
2024/03/11 01:42:15;;;;;;;65.40;23.95;;;5.40;99.90;;;;;;5013791;28;20483;-94
2024/03/11 01:44:51;;;;;;;57.92;24.55;;;5.40;99.90;;;;;;5013472;28;20057;-94
2024/03/11 01:47:19;;;;;;;63.42;23.77;;;5.40;99.90;;;;;;5013547;28;20100;-93
2024/03/11 01:49:47;;;;;;;61.90;23.20;;;5.40;99.90;;;;;;4994963;28;20021;-93
2024/03/11 01:52:21;;;;;;;59.78;23.15;;;5.30;99.90;;;;;;5013383;28;20032;-92
2024/03/11 01:54:47;;;;;;;47.35;19.38;;;5.40;99.90;;;;;;5004521;28;20021;-94
2024/03/11 01:57:15;;;;;;;57.63;24.23;;;5.40;99.90;;;;;;4997599;28;20037;-94
2024/03/11 01:59:42;;;;;;;50.75;23.15;;;5.40;99.90;;;;;;4997820;28;20025;-95
2024/03/11 02:02:07;;;;;;;56.58;22.50;;;5.40;99.90;;;;;;4998466;28;20022;-93
2024/03/11 02:04:34;;;;;;;54.97;21.67;;;5.30;99.90;;;;;;4998898;28;20100;-95
2024/03/11 02:07:01;;;;;;;57.90;22.25;;;5.30;99.90;;;;;;5000873;28;20045;-95
2024/03/11 02:09:27;;;;;;;58.03;21.58;;;5.40;99.90;;;;;;5019003;28;20030;-94
2024/03/11 02:11:53;;;;;;;43.05;19.30;;;5.40;99.90;;;;;;5009951;28;20468;-92
2024/03/11 02:14:19;;;;;;;51.45;21.45;;;5.30;99.90;;;;;;5008629;28;20045;-92
2024/03/11 02:16:45;;;;;;;58.78;22.20;;;5.30;99.90;;;;;;5007609;28;20053;-94
2024/03/11 02:19:12;;;;;;;48.60;21.75;;;5.30;99.90;;;;;;5006253;28;20021;-93
2024/03/11 02:21:47;;;;;;;51.85;21.70;;;5.30;99.90;;;;;;5004000;28;20101;-94
2024/03/11 02:24:16;;;;;;;41.97;16.05;;;5.30;99.90;;;;;;5001314;28;20029;-94
2024/03/11 02:26:45;;;;;;;51.30;21.60;;;5.30;99.90;;;;;;4998943;28;20044;-94
2024/03/11 02:29:12;;;;;;;41.42;18.45;;;5.30;99.90;;;;;;4996706;28;20120;-94
2024/03/11 02:31:37;;;;;;;48.20;21.00;;;5.30;99.90;;;;;;4996124;28;20025;-92
2024/03/11 02:34:03;;;;;;;46.45;19.88;;;5.30;99.90;;;;;;4994823;28;20025;-93
2024/03/11 02:36:29;;;;;;;42.63;18.95;;;5.30;99.90;;;;;;4995452;28;20041;-93
2024/03/11 02:38:55;;;;;;;44.60;20.02;;;5.30;99.90;;;;;;5013618;28;20135;-94
2024/03/11 02:41:20;;;;;;;52.22;21.17;;;5.30;99.90;;;;;;5013197;28;20033;-95
2024/03/11 02:43:46;;;;;;;49.63;19.52;;;5.30;99.90;;;;;;5012516;28;20029;-92
2024/03/11 02:46:12;;;;;;;45.13;20.25;;;5.30;99.90;;;;;;4995297;28;20348;-93
2024/03/11 02:48:39;;;;;;;47.85;20.13;;;5.30;99.90;;;;;;4994756;28;20038;-93
2024/03/11 02:51:05;;;;;;;44.80;19.33;;;5.30;99.90;;;;;;4994984;28;20030;-92
2024/03/11 02:53:31;;;;;;;46.08;17.85;;;5.30;99.90;;;;;;4995180;28;20033;-92
2024/03/11 02:56:02;;;;;;;42.28;18.88;;;5.30;99.90;;;;;;5012275;28;20463;-93
2024/03/11 02:58:28;;;;;;;42.70;20.30;;;5.30;99.90;;;;;;4995941;28;20021;-92
2024/03/11 03:00:56;;;;;;;54.70;21.02;;;5.30;99.90;;;;;;5012353;28;20045;-92
2024/03/11 03:03:21;;;;;;;48.42;19.75;;;5.30;99.90;;;;;;4995198;28;20026;-92
2024/03/11 03:05:47;;;;;;;38.22;14.75;;;5.30;99.90;;;;;;4995578;28;20038;-94
2024/03/11 03:08:13;;;;;;;46.92;19.40;;;5.30;99.90;;;;;;5014921;28;20030;-92
2024/03/11 03:10:38;;;;;;;47.28;18.83;;;5.30;99.90;;;;;;4999914;28;20053;-93
2024/03/11 03:13:05;;;;;;;47.38;20.63;;;5.30;99.90;;;;;;5005576;28;20026;-92
2024/03/11 03:15:30;;;;;;;40.53;18.30;;;5.30;99.90;;;;;;5005019;28;20026;-94
2024/03/11 03:17:56;;;;;;;47.20;18.95;;;5.30;99.90;;;;;;5019186;28;20490;-93
2024/03/11 03:20:22;;;;;;;50.58;19.15;;;5.30;99.90;;;;;;5021164;28;20062;-92
2024/03/11 03:22:48;;;;;;;45.60;18.95;;;5.20;99.90;;;;;;5008271;28;20034;-92
2024/03/11 03:25:13;;;;;;;44.22;17.73;;;5.30;99.90;;;;;;5026271;28;20383;-93
2024/03/11 03:27:39;;;;;;;48.13;20.08;;;5.30;99.90;;;;;;5011681;28;20061;-93
2024/03/11 03:30:06;;;;;;;51.95;21.08;;;5.30;99.90;;;;;;5005027;28;20089;-93
2024/03/11 03:32:33;;;;;;;54.08;20.65;;;5.30;99.90;;;;;;4998917;28;20029;-92
2024/03/11 03:34:59;;;;;;;55.92;21.15;;;5.30;99.90;;;;;;4994807;28;20033;-92
2024/03/11 03:37:25;;;;;;;59.13;22.33;;;5.30;99.90;;;;;;4995499;28;20113;-92
2024/03/11 03:39:50;;;;;;;61.90;25.17;;;5.30;99.90;;;;;;5012587;28;20105;-93
2024/03/11 03:42:16;;;;;;;65.15;23.05;;;5.30;99.90;;;;;;4995108;28;20033;-92
2024/03/11 03:44:42;;;;;;;58.58;23.95;;;5.30;99.90;;;;;;5012281;28;20068;-93
2024/03/11 03:47:08;;;;;;;67.28;26.05;;;5.30;99.90;;;;;;4994058;28;20084;-93
2024/03/11 03:49:33;;;;;;;58.20;22.92;;;5.30;99.90;;;;;;4993984;28;20075;-92
2024/03/11 03:51:59;;;;;;;56.65;21.88;;;5.30;99.90;;;;;;4994162;28;20045;-92
2024/03/11 03:54:27;;;;;;;52.42;21.90;;;5.30;99.90;;;;;;4994730;28;20029;-93
2024/03/11 03:56:54;;;;;;;52.85;21.42;;;5.30;99.90;;;;;;4994077;28;20478;-92
2024/03/11 03:59:21;;;;;;;45.78;18.42;;;5.30;99.90;;;;;;5011592;28;20028;-93
2024/03/11 04:01:47;;;;;;;44.58;19.02;;;5.30;99.90;;;;;;5012376;28;20022;-93
2024/03/11 04:04:13;;;;;;;47.20;19.92;;;5.30;99.90;;;;;;4994643;28;20032;-92
2024/03/11 04:06:39;;;;;;;45.85;21.17;;;5.30;99.90;;;;;;4993523;28;20026;-93
2024/03/11 04:09:08;;;;;;;52.75;19.77;;;5.20;99.90;;;;;;5010884;28;20021;-93
2024/03/11 04:11:35;;;;;;;48.85;19.35;;;5.30;99.90;;;;;;4994472;28;20096;-94
2024/03/11 04:14:02;;;;;;;51.65;20.05;;;5.30;99.90;;;;;;4994760;28;20026;-94
2024/03/11 04:16:28;;;;;;;42.50;19.02;;;5.30;99.90;;;;;;4993992;28;20026;-93
2024/03/11 04:18:54;;;;;;;51.47;20.55;;;5.30;99.90;;;;;;4994205;28;20053;-93
2024/03/11 04:21:21;;;;;;;48.35;21.85;;;5.20;99.90;;;;;;4997557;28;20030;-93
2024/03/11 04:23:50;;;;;;;43.80;19.27;;;5.30;99.90;;;;;;5015229;28;20053;-93
2024/03/11 04:26:16;;;;;;;48.33;20.30;;;5.30;99.90;;;;;;5014410;28;20045;-92
2024/03/11 04:28:43;;;;;;;52.45;20.98;;;5.20;99.90;;;;;;4997453;28;20175;-92
2024/03/11 04:31:09;;;;;;;54.92;20.85;;;5.20;99.90;;;;;;4997488;28;20610;-93
2024/03/11 04:33:35;;;;;;;53.95;22.30;;;5.20;99.90;;;;;;5015724;28;20049;-93
2024/03/11 04:36:01;;;;;;;46.60;19.42;;;5.20;99.90;;;;;;4998078;28;20057;-92
2024/03/11 04:38:26;;;;;;;49.72;20.25;;;5.30;99.90;;;;;;5015063;28;20022;-93
2024/03/11 04:40:52;;;;;;;53.33;20.85;;;5.20;99.90;;;;;;5014837;28;20018;-94
2024/03/11 04:43:18;;;;;;;45.83;20.52;;;5.20;99.90;;;;;;5014616;28;20022;-93
2024/03/11 04:45:44;;;;;;;49.75;20.60;;;5.20;99.90;;;;;;4998006;28;20042;-93
2024/03/11 04:48:10;;;;;;;51.15;21.17;;;5.20;99.90;;;;;;4996845;28;20128;-93
2024/03/11 04:50:38;;;;;;;50.08;19.83;;;5.20;99.90;;;;;;5014681;28;20399;-93
2024/03/11 04:53:05;;;;;;;48.13;19.38;;;5.20;99.90;;;;;;5014368;28;20095;-93
2024/03/11 04:55:32;;;;;;;53.03;21.33;;;5.30;99.90;;;;;;4997292;28;20045;-93
2024/03/11 04:57:59;;;;;;;49.65;21.45;;;5.20;99.90;;;;;;5014749;28;20113;-93
2024/03/11 05:00:26;;;;;;;57.28;21.90;;;5.20;99.90;;;;;;5014394;28;20021;-91
2024/03/11 05:02:55;;;;;;;49.42;20.55;;;5.20;99.90;;;;;;4997219;28;20022;-92
2024/03/11 05:05:21;;;;;;;45.47;19.88;;;5.20;99.90;;;;;;4996449;28;20084;-93
2024/03/11 05:07:49;;;;;;;52.90;19.13;;;5.20;99.90;;;;;;4997091;28;20537;-94
2024/03/11 05:10:15;;;;;;;45.65;18.75;;;5.20;99.90;;;;;;5012798;28;20053;-92
2024/03/11 05:12:41;;;;;;;45.42;18.75;;;5.20;99.90;;;;;;5017371;28;20022;-94
2024/03/11 05:15:09;;;;;;;43.08;17.80;;;5.20;99.90;;;;;;5002270;28;20022;-93
2024/03/11 05:17:37;;;;;;;39.25;17.10;;;5.20;99.90;;;;;;5021644;28;20119;-94
2024/03/11 05:20:06;;;;;;;47.30;20.77;;;5.20;99.90;;;;;;5021474;28;20256;-92
2024/03/11 05:22:32;;;;;;;53.10;21.38;;;5.20;99.90;;;;;;5017693;28;20034;-93
2024/03/11 05:24:58;;;;;;;50.13;20.55;;;5.20;99.90;;;;;;4998845;28;20022;-92
2024/03/11 05:27:24;;;;;;;52.05;20.75;;;5.20;99.90;;;;;;5014051;28;20378;-92
2024/03/11 05:29:50;;;;;;;51.95;19.85;;;5.20;99.90;;;;;;5012921;28;20104;-94
2024/03/11 05:32:15;;;;;;;54.00;20.27;;;5.20;99.90;;;;;;5013510;28;20018;-92
2024/03/11 05:34:41;;;;;;;54.08;21.23;;;5.20;99.90;;;;;;4996810;28;20403;-94
2024/03/11 05:37:07;;;;;;;44.88;19.35;;;5.20;99.90;;;;;;4997534;28;20478;-92
2024/03/11 05:39:34;;;;;;;55.33;21.33;;;5.20;99.90;;;;;;5013592;28;20431;-92
2024/03/11 05:42:00;;;;;;;44.50;18.50;;;5.20;99.90;;;;;;4996826;28;20172;-92
2024/03/11 05:44:25;;;;;;;48.38;17.70;;;5.20;99.90;;;;;;5014217;28;20057;-93
2024/03/11 05:46:51;;;;;;;48.00;19.70;;;5.20;99.90;;;;;;5012353;28;20080;-93
2024/03/11 05:49:16;;;;;;;35.20;15.20;;;5.20;99.90;;;;;;4995329;28;20024;-93
2024/03/11 05:51:42;;;;;;;44.17;18.75;;;5.20;99.90;;;;;;5013490;28;20041;-93
2024/03/11 05:54:17;;;;;;;50.80;21.08;;;5.20;99.90;;;;;;4996604;28;20541;-92
2024/03/11 05:56:53;;;;;;;42.05;16.67;;;5.20;99.90;;;;;;4996701;28;20022;-92
2024/03/11 05:59:21;;;;;;;48.83;21.38;;;5.20;99.90;;;;;;4996139;28;20029;-93
2024/03/11 06:01:48;;;;;;;53.72;20.75;;;5.20;99.90;;;;;;4995951;28;20029;-93
2024/03/11 06:04:14;;;;;;;47.72;19.33;;;5.20;99.90;;;;;;5013732;28;20028;-92
2024/03/11 06:06:43;;;;;;;54.03;20.80;;;5.20;99.90;;;;;;4996101;28;20391;-94
2024/03/11 06:09:10;;;;;;;56.45;21.60;;;5.20;99.90;;;;;;5014972;28;20483;-92
2024/03/11 06:11:40;;;;;;;51.08;21.10;;;5.20;99.90;;;;;;4992499;28;20385;-92
2024/03/11 06:14:06;;;;;;;56.15;22.35;;;5.20;99.90;;;;;;4992539;28;20022;-93
2024/03/11 06:16:33;;;;;;;51.90;20.95;;;5.20;99.90;;;;;;4993979;28;20035;-92
2024/03/11 06:19:00;;;;;;;45.45;20.27;;;5.20;99.90;;;;;;4992135;28;20053;-93
2024/03/11 06:21:26;;;;;;;51.38;19.90;;;5.20;99.90;;;;;;4992221;28;20025;-92
2024/03/11 06:23:52;;;;;;;46.15;19.10;;;5.20;99.90;;;;;;4999696;28;20514;-93
2024/03/11 06:26:17;;;;;;;51.45;20.00;;;5.20;99.90;;;;;;4992931;28;20157;-92
2024/03/11 06:28:43;;;;;;;45.72;20.52;;;5.30;99.90;;;;;;4991854;28;20058;-94
2024/03/11 06:31:09;;;;;;;52.33;20.67;;;5.20;99.90;;;;;;4991986;28;20022;-92
2024/03/11 06:33:35;;;;;;;44.20;18.63;;;5.30;99.90;;;;;;4992526;28;20369;-94
2024/03/11 06:36:01;;;;;;;55.45;19.50;;;5.20;99.90;;;;;;4998784;28;20134;-93
2024/03/11 06:38:27;;;;;;;44.13;18.58;;;5.20;99.90;;;;;;5004818;28;20091;-93
2024/03/11 06:40:53;;;;;;;45.40;17.92;;;5.20;99.90;;;;;;5002388;28;20424;-93
2024/03/11 06:43:18;;;;;;;49.97;19.02;;;5.30;99.90;;;;;;4999407;28;20041;-92
2024/03/11 06:45:46;;;;;;;51.10;20.50;;;5.30;99.90;;;;;;4995073;28;20038;-92
2024/03/11 06:48:12;;;;;;;48.38;19.73;;;5.20;99.90;;;;;;4994417;28;20035;-93
2024/03/11 06:50:38;;;;;;;51.08;18.63;;;5.30;99.90;;;;;;4994478;28;20022;-92
2024/03/11 06:53:06;;;;;;;56.78;22.02;;;5.30;99.90;;;;;;5001541;28;20040;-92
2024/03/11 06:55:34;;;;;;;53.85;21.05;;;5.30;99.90;;;;;;4992772;28;20030;-92
2024/03/11 06:58:00;;;;;;;51.88;21.85;;;5.30;99.90;;;;;;4992122;28;20053;-92
2024/03/11 07:00:27;;;;;;;48.90;19.92;;;5.30;99.90;;;;;;4992507;28;20106;-94
2024/03/11 07:02:53;;;;;;;53.22;21.35;;;5.30;99.90;;;;;;4992827;28;20026;-93
2024/03/11 07:05:26;;;;;;;58.70;21.35;;;5.30;99.90;;;;;;4992861;28;20104;-93
2024/03/11 07:07:52;;;;;;;54.88;19.95;;;5.30;99.90;;;;;;4994011;28;20217;-93
2024/03/11 07:10:18;;;;;;;50.30;19.63;;;5.30;99.90;;;;;;5001061;28;20092;-93
2024/03/11 07:12:44;;;;;;;51.33;20.50;;;5.30;99.90;;;;;;4997305;28;20033;-93
2024/03/11 07:15:11;;;;;;;43.90;19.50;;;5.30;99.90;;;;;;4996141;28;20076;-92
2024/03/11 07:17:37;;;;;;;33.80;13.23;;;5.30;99.90;;;;;;4996896;28;20021;-94
2024/03/11 07:20:24;;;;;;;44.65;19.10;;;5.30;99.90;;;;;;4996120;28;20022;-93
2024/03/11 07:22:51;;;;;;;52.50;19.80;;;5.30;99.90;;;;;;5014958;28;20109;-94
2024/03/11 07:25:17;;;;;;;42.15;18.60;;;5.30;99.90;;;;;;4997970;28;20022;-91
2024/03/11 07:27:47;;;;;;;51.13;19.30;;;5.40;99.90;;;;;;5013403;28;20064;-94
2024/03/11 07:30:14;;;;;;;46.67;19.42;;;5.30;99.90;;;;;;5015503;28;20056;-93
2024/03/11 07:32:42;;;;;;;43.67;19.00;;;5.40;99.90;;;;;;5014022;28;20081;-92
2024/03/11 07:35:08;;;;;;;41.30;16.70;;;5.30;99.90;;;;;;4997829;28;20384;-93
2024/03/11 07:37:36;;;;;;;48.83;21.65;;;5.30;99.90;;;;;;4998355;28;20509;-93
2024/03/11 07:40:06;;;;;;;43.22;18.42;;;5.40;99.90;;;;;;5014257;28;20085;-94
2024/03/11 07:42:32;;;;;;;45.90;19.38;;;5.40;99.90;;;;;;5019382;28;20566;-92
2024/03/11 07:44:58;;;;;;;47.17;18.58;;;5.40;99.90;;;;;;5029866;28;20017;-93
2024/03/11 07:47:24;;;;;;;50.42;20.02;;;5.40;99.90;;;;;;5004041;28;20088;-93
2024/03/11 07:49:50;;;;;;;51.83;21.00;;;5.40;99.90;;;;;;4998236;28;20029;-93
2024/03/11 07:52:15;;;;;;;44.85;20.45;;;5.40;99.90;;;;;;5000673;28;20022;-95
2024/03/11 07:54:41;;;;;;;47.65;20.33;;;5.40;99.90;;;;;;5003609;28;20049;-93
2024/03/11 07:57:07;;;;;;;49.95;20.67;;;5.50;99.90;;;;;;5021428;28;20277;-94
2024/03/11 07:59:33;;;;;;;50.30;19.77;;;5.40;99.90;;;;;;5014302;28;20022;-92
2024/03/11 08:01:59;;;;;;;50.25;20.50;;;5.50;99.90;;;;;;5017347;28;20041;-94
2024/03/11 08:04:24;;;;;;;59.17;20.40;;;5.50;99.90;;;;;;5017927;28;20072;-94
2024/03/11 08:06:52;;;;;;;49.67;21.60;;;5.50;99.90;;;;;;5000088;28;20034;-94
2024/03/11 08:09:18;;;;;;;47.80;18.88;;;5.50;99.90;;;;;;4998783;28;20026;-93
2024/03/11 08:11:44;;;;;;;52.60;20.85;;;5.50;99.90;;;;;;4999373;28;20068;-94
2024/03/11 08:14:10;;;;;;;53.63;21.13;;;5.50;99.90;;;;;;4999613;28;20034;-93
2024/03/11 08:16:37;;;;;;;43.92;19.15;;;5.60;99.90;;;;;;5000218;28;20484;-94
2024/03/11 08:19:03;;;;;;;50.38;19.17;;;5.60;99.90;;;;;;5002143;28;20037;-93
2024/03/11 08:21:28;;;;;;;60.63;21.10;;;5.60;99.90;;;;;;5000991;28;20022;-94
2024/03/11 08:23:54;;;;;;;43.78;19.83;;;5.60;99.90;;;;;;5022368;28;20045;-93
2024/03/11 08:26:20;;;;;;;56.75;21.02;;;5.60;99.90;;;;;;5013297;28;20034;-93
2024/03/11 08:28:45;;;;;;;52.78;20.55;;;5.60;99.90;;;;;;5022012;28;20992;-93
2024/03/11 08:31:11;;;;;;;50.05;20.88;;;5.60;99.90;;;;;;5010262;28;20033;-93
2024/03/11 08:33:37;;;;;;;53.10;21.65;;;5.60;99.90;;;;;;5007068;28;20095;-93
2024/03/11 08:36:06;;;;;;;49.83;20.77;;;5.60;99.90;;;;;;5006180;28;20471;-93
2024/03/11 08:38:33;;;;;;;59.63;22.38;;;5.60;99.90;;;;;;5000360;28;20026;-91
2024/03/11 08:41:05;;;;;;;54.85;22.13;;;5.60;99.90;;;;;;5000850;28;20053;-92
2024/03/11 08:43:31;;;;;;;56.78;21.45;;;5.60;99.90;;;;;;5005976;28;20040;-95
2024/03/11 08:45:57;;;;;;;54.85;23.42;;;5.70;99.90;;;;;;5017424;28;20018;-93
2024/03/11 08:48:23;;;;;;;57.55;20.83;;;5.70;99.90;;;;;;4997184;28;20038;-92
2024/03/11 08:50:49;;;;;;;51.28;21.70;;;5.70;99.90;;;;;;5000408;28;20021;-93
2024/03/11 08:53:15;;;;;;;49.85;20.58;;;5.70;99.90;;;;;;4999561;28;20056;-93
2024/03/11 08:55:42;;;;;;;54.50;23.25;;;5.70;99.90;;;;;;5000582;28;20022;-93
2024/03/11 08:58:09;;;;;;;56.47;23.10;;;5.70;99.90;;;;;;5000265;28;20037;-93
2024/03/11 09:00:36;;;;;;;60.40;22.63;;;5.70;99.90;;;;;;5001140;28;20086;-93
2024/03/11 09:03:05;;;;;;;45.85;19.85;;;5.70;99.90;;;;;;5007293;28;20026;-94
2024/03/11 09:05:31;;;;;;;48.25;20.50;;;5.80;99.90;;;;;;5008366;28;20108;-92
2024/03/11 09:07:59;;;;;;;57.03;22.98;;;5.80;99.90;;;;;;5004986;28;20030;-92
2024/03/11 09:10:26;;;;;;;50.38;20.27;;;5.80;99.90;;;;;;4996103;28;20050;-92
2024/03/11 09:12:52;;;;;;;56.67;22.70;;;5.80;99.90;;;;;;5012312;28;20042;-94
2024/03/11 09:15:18;;;;;;;61.58;22.88;;;5.90;99.90;;;;;;4992771;28;20041;-91
2024/03/11 09:17:49;;;;;;;51.95;21.55;;;5.90;99.90;;;;;;4990491;28;20026;-92
2024/03/11 09:20:19;;;;;;;53.25;24.60;;;5.90;99.90;;;;;;4997033;28;20491;-91
2024/03/11 09:22:51;;;;;;;58.72;24.42;;;5.90;99.90;;;;;;4998895;28;20153;-93
2024/03/11 09:25:24;;;;;;;53.40;22.67;;;5.90;99.90;;;;;;4999003;28;20030;-93
2024/03/11 09:27:59;;;;;;;51.83;21.15;;;5.90;99.90;;;;;;4993865;28;20127;-93
2024/03/11 09:30:28;;;;;;;54.25;22.48;;;5.90;99.90;;;;;;5009949;28;20117;-92
2024/03/11 09:32:55;;;;;;;51.90;22.20;;;5.90;99.90;;;;;;4992445;28;20456;-91
2024/03/11 09:35:21;;;;;;;44.63;19.45;;;5.90;99.90;;;;;;4988799;28;20030;-94
2024/03/11 09:37:52;;;;;;;56.95;21.60;;;5.90;99.90;;;;;;4991515;28;20105;-92
2024/03/11 09:40:23;;;;;;;57.05;21.08;;;5.90;99.90;;;;;;4993299;28;20085;-95
2024/03/11 09:42:54;;;;;;;56.42;22.42;;;5.90;99.90;;;;;;4996597;28;20030;-95
2024/03/11 09:45:22;;;;;;;53.33;23.20;;;5.90;99.90;;;;;;4994494;28;20035;-92
2024/03/11 09:47:55;;;;;;;52.80;20.85;;;5.90;99.90;;;;;;4994691;28;20041;-95
2024/03/11 09:50:30;;;;;;;56.70;22.05;;;5.90;99.90;;;;;;4991986;28;20475;-94
2024/03/11 09:53:06;;;;;;;51.50;21.52;;;5.90;99.90;;;;;;4990381;28;20030;-93
2024/03/11 09:55:33;;;;;;;53.88;21.05;;;5.90;99.90;;;;;;4989042;28;20644;-94
2024/03/11 09:58:06;;;;;;;57.40;24.15;;;5.90;99.90;;;;;;4994526;28;20034;-91
2024/03/11 10:00:33;;;;;;;57.00;23.10;;;5.90;99.90;;;;;;4996870;28;20022;-92
2024/03/11 10:03:02;;;;;;;53.65;21.00;;;6.00;99.90;;;;;;4997917;28;20037;-92
2024/03/11 10:05:30;;;;;;;54.63;22.08;;;6.00;99.90;;;;;;4999054;28;20022;-92
2024/03/11 10:08:00;;;;;;;54.65;22.05;;;5.90;99.90;;;;;;4995141;28;20034;-91
2024/03/11 10:10:29;;;;;;;57.55;21.73;;;6.00;99.90;;;;;;4993100;28;20093;-94
2024/03/11 10:12:58;;;;;;;50.10;21.65;;;6.00;99.90;;;;;;4995699;28;20034;-92
2024/03/11 10:15:29;;;;;;;51.75;22.23;;;6.00;99.90;;;;;;4995591;28;20026;-94
2024/03/11 10:18:15;;;;;;;59.63;21.92;;;6.00;99.90;;;;;;4998761;28;20026;-94
2024/03/11 10:20:57;;;;;;;53.92;21.13;;;6.00;99.90;;;;;;4995777;28;20038;-95
2024/03/11 10:23:28;;;;;;;52.53;22.27;;;6.10;99.90;;;;;;4997213;28;20157;-95
2024/03/11 10:26:18;;;;;;;55.03;22.08;;;6.10;99.90;;;;;;4995671;28;20073;-96
2024/03/11 10:31:55;;;;;;;;;;;6.10;99.90;;;;;;5002949;22;20066;-86
2024/03/11 10:34:21;;;;;;;54.63;21.55;;;6.10;99.90;;;;;;4993624;28;19909;-84
2024/03/11 10:36:55;;;;;;;49.22;22.08;;;6.10;99.90;;;;;;4993488;28;20501;-82
2024/03/11 10:41:51;;;;;;;59.72;22.60;;;6.10;99.90;;;;;;4993088;28;20069;-79
2024/03/11 10:44:23;;;;;;;54.67;21.27;;;6.10;99.90;;;;;;4976463;28;20031;-81
2024/03/11 10:46:51;;;;;;;51.38;21.52;;;6.10;99.90;;;;;;4993655;28;20167;-79
2024/03/11 10:49:19;;;;;;;48.50;21.55;;;6.10;99.90;;;;;;4975882;28;20034;-80
2024/03/11 10:51:46;;;;;;;53.20;21.92;;;6.10;99.90;;;;;;4993209;28;20026;-80
2024/03/11 10:54:28;;;;;;;47.15;20.73;;;6.20;99.90;;;;;;4993275;28;20032;-80
2024/03/11 10:56:55;;;;;;;53.47;20.50;;;6.20;99.90;;;;;;4975869;28;20033;-82
2024/03/11 10:59:29;;;;;;;50.75;20.65;;;6.20;99.90;;;;;;4993014;28;20041;-80
2024/03/11 11:01:59;;;;;;;46.65;19.98;;;6.20;99.90;;;;;;4992986;28;20030;-81
2024/03/11 11:04:33;;;;;;;46.15;19.83;;;6.20;99.90;;;;;;4975530;28;20038;-79
2024/03/11 11:07:02;;;;;;;50.47;20.35;;;6.30;99.90;;;;;;4975434;28;20057;-82
2024/03/11 11:09:29;;;;;;;49.45;19.17;;;6.30;99.90;;;;;;4975445;28;20030;-81
2024/03/11 11:11:56;;;;;;;46.45;19.85;;;6.30;99.90;;;;;;4992702;28;20023;-80
2024/03/11 11:14:24;;;;;;;42.15;18.95;;;6.30;99.90;;;;;;4993116;28;20114;-81
2024/03/11 11:16:51;;;;;;;41.65;17.75;;;6.30;99.90;;;;;;4992494;28;20072;-81
2024/03/11 11:19:34;;;;;;;47.47;20.30;;;6.30;99.90;;;;;;4975001;28;20029;-79
2024/03/11 11:22:07;;;;;;;48.50;20.02;;;6.40;99.90;;;;;;4993026;28;20029;-83
2024/03/11 11:24:39;;;;;;;42.35;19.08;;;6.40;99.90;;;;;;4992810;28;20022;-80
2024/03/11 11:27:07;;;;;;;44.38;18.98;;;6.40;99.90;;;;;;4992892;28;20419;-81
2024/03/11 11:29:33;;;;;;;45.50;19.40;;;6.40;99.90;;;;;;4976442;28;20046;-81
2024/03/11 11:32:04;;;;;;;47.08;18.98;;;6.40;99.90;;;;;;4958240;28;20126;-80
2024/03/11 11:34:45;;;;;;;44.42;18.60;;;6.50;99.90;;;;;;4963126;28;20038;-80
2024/03/11 11:37:13;;;;;;;46.15;19.30;;;6.50;99.90;;;;;;4969153;28;20367;-79
2024/03/11 11:39:42;;;;;;;50.25;19.58;;;6.50;99.90;;;;;;4969840;28;20026;-80
2024/03/11 11:42:35;;;;;;;45.47;19.15;;;6.50;99.90;;;;;;4958757;28;20471;-80
2024/03/11 11:45:01;;;;;;;47.72;18.58;;;6.50;99.90;;;;;;4952647;28;20395;-80
2024/03/11 11:47:27;;;;;;;47.30;20.60;;;6.50;99.90;;;;;;4956134;28;20027;-80
2024/03/11 11:49:56;;;;;;;43.42;18.85;;;6.50;99.90;;;;;;4962811;28;20185;-80
2024/03/11 11:52:23;;;;;;;46.28;19.23;;;6.50;99.90;;;;;;4956210;28;20050;-80
2024/03/11 11:54:50;;;;;;;44.78;20.20;;;6.60;99.90;;;;;;4954789;28;20491;-80
2024/03/11 11:57:19;;;;;;;46.53;20.10;;;6.60;99.90;;;;;;4956208;28;20031;-80
2024/03/11 11:59:55;;;;;;;46.15;20.08;;;6.60;99.90;;;;;;4959899;28;20049;-80
2024/03/11 12:02:25;;;;;;;47.00;20.48;;;6.60;99.90;;;;;;4956751;28;20463;-80
2024/03/11 12:05:05;;;;;;;52.50;20.20;;;6.60;99.90;;;;;;4957597;28;20027;-79
2024/03/11 12:07:38;;;;;;;43.83;18.98;;;6.70;99.90;;;;;;4956097;28;20130;-80
2024/03/11 12:10:06;;;;;;;49.92;20.23;;;6.70;99.90;;;;;;4963956;28;20131;-80
2024/03/11 12:12:39;;;;;;;44.15;18.52;;;6.70;99.90;;;;;;4966129;28;20026;-80
2024/03/11 12:15:05;;;;;;;42.10;17.92;;;6.80;99.90;;;;;;4961256;28;20034;-80
2024/03/11 12:17:32;;;;;;;45.20;17.92;;;6.80;99.90;;;;;;4966145;28;20455;-80
2024/03/11 12:22:51;;;;;;;47.83;19.35;;;6.80;99.90;;;;;;4965434;28;20593;-80
2024/03/11 12:25:17;;;;;;;45.30;20.52;;;6.80;99.90;;;;;;4966878;28;20050;-80
2024/03/11 12:27:44;;;;;;;42.35;18.40;;;6.90;99.90;;;;;;4961161;28;20027;-81
2024/03/11 12:30:24;;;;;;;45.55;19.25;;;6.90;99.90;;;;;;4975411;28;20421;-80
2024/03/11 12:32:56;;;;;;;41.28;17.90;;;6.90;99.90;;;;;;4986238;28;20045;-80
2024/03/11 12:35:25;;;;;;;46.13;20.15;;;7.00;99.90;;;;;;4991011;28;20058;-80
2024/03/11 12:37:52;;;;;;;41.97;17.95;;;7.00;99.90;;;;;;4982452;28;20034;-80
2024/03/11 12:40:18;;;;;;;43.35;16.63;;;7.00;99.90;;;;;;4996136;28;20030;-83
2024/03/11 12:42:47;;;;;;;41.70;16.88;;;7.00;99.90;;;;;;4995426;28;20466;-81
2024/03/11 12:45:15;;;;;;;37.75;16.00;;;7.10;99.90;;;;;;4995794;28;20406;-80
2024/03/11 12:47:44;;;;;;;44.10;18.05;;;7.10;99.90;;;;;;4995443;28;20101;-82
2024/03/11 12:50:11;;;;;;;41.92;15.95;;;7.10;99.90;;;;;;4995462;28;20034;-80